Time;durP1;ratioP1;P1;durP2;ratioP2;P2;SDS_P1;SDS_P2;PMS_P1;PMS_P2;Temp;Humidity;BMP_temperature;BMP_pressure;BME280_temperature;BME280_humidity;BME280_pressure;Samples;Min_cycle;Max_cycle;Signal;HPM_P1;HPM_P2
2021/08/08 06:21:12;;;;;;;;;;;;;;;;;;;;;
2021/08/08 08:06:19;;;;;;;1.63;1.10;;;18.40;99.90;;;;;;6244796;22;20453;-85
2021/08/08 08:08:59;;;;;;;5.17;3.87;;;18.50;99.90;;;;;;6203454;23;20912;-86
2021/08/08 08:12:12;;;;;;;1.77;1.50;;;18.60;99.90;;;;;;6249714;23;20444;-87
2021/08/08 08:15:17;;;;;;;1.27;1.17;;;18.60;99.90;;;;;;6217284;23;20439;-86
2021/08/08 08:17:49;;;;;;;1.53;1.43;;;18.70;99.90;;;;;;6222118;23;20432;-87
2021/08/08 08:20:48;;;;;;;3.10;2.07;;;18.70;99.90;;;;;;6227223;23;20467;-84
2021/08/08 08:23:28;;;;;;;1.87;1.40;;;18.70;99.90;;;;;;6107292;23;20476;-84
2021/08/08 08:26:01;;;;;;;3.17;1.47;;;18.70;99.90;;;;;;6224062;23;20412;-84
2021/08/08 08:28:31;;;;;;;1.30;1.20;;;18.50;99.90;;;;;;6231161;23;20422;-84
2021/08/08 08:30:58;;;;;;;1.40;1.13;;;18.60;99.90;;;;;;6231040;23;20719;-85
2021/08/08 08:33:43;;;;;;;1.40;1.30;;;18.60;99.90;;;;;;6228195;23;20458;-84
2021/08/08 08:36:10;;;;;;;1.50;1.20;;;18.70;99.90;;;;;;6228758;23;20412;-84
2021/08/08 08:38:39;;;;;;;1.80;1.37;;;18.80;99.90;;;;;;6225150;23;20751;-86
2021/08/08 08:41:09;;;;;;;1.17;1.17;;;18.80;99.90;;;;;;6223279;23;20506;-84
2021/08/08 08:43:36;;;;;;;2.30;1.80;;;18.80;99.90;;;;;;6226148;23;20423;-84
2021/08/08 08:46:03;;;;;;;3.03;1.67;;;18.80;99.90;;;;;;6226333;23;20406;-84
2021/08/08 08:48:32;;;;;;;2.70;1.93;;;18.90;99.90;;;;;;6227050;23;20441;-84
2021/08/08 08:51:01;;;;;;;3.73;1.53;;;19.00;99.90;;;;;;6228102;23;20418;-84
2021/08/08 08:53:28;;;;;;;2.00;1.70;;;19.00;99.90;;;;;;6226415;23;20501;-84
2021/08/08 08:55:54;;;;;;;2.30;1.50;;;19.00;99.90;;;;;;6224478;23;20745;-87
2021/08/08 08:58:23;;;;;;;2.30;1.00;;;18.90;99.90;;;;;;6221026;23;20403;-84
2021/08/08 09:00:49;;;;;;;1.50;1.27;;;18.90;99.90;;;;;;6219624;23;20472;-87
2021/08/08 09:03:16;;;;;;;1.70;1.60;;;18.90;99.90;;;;;;6219671;23;20420;-86
2021/08/08 09:05:43;;;;;;;1.27;1.27;;;18.80;99.90;;;;;;6219964;23;20776;-87
2021/08/08 09:08:10;;;;;;;1.23;1.10;;;18.80;99.90;;;;;;6220347;23;20437;-84
2021/08/08 09:10:38;;;;;;;2.37;1.33;;;18.90;99.90;;;;;;6220526;23;20412;-84
2021/08/08 09:13:08;;;;;;;1.03;1.03;;;19.10;99.90;;;;;;6220394;23;20450;-85
2021/08/08 09:15:39;;;;;;;3.10;1.40;;;19.30;99.90;;;;;;6220214;23;20437;-85
2021/08/08 09:18:17;;;;;;;2.67;1.97;;;19.40;99.90;;;;;;6220196;23;20396;-86
2021/08/08 09:20:46;;;;;;;1.30;1.20;;;19.60;99.90;;;;;;6219538;23;20448;-87
2021/08/08 09:23:13;;;;;;;1.80;1.10;;;19.80;99.90;;;;;;6221341;23;20413;-84
2021/08/08 09:25:54;;;;;;;2.10;1.20;;;19.90;99.90;;;;;;6219879;23;20817;-84
2021/08/08 11:37:14;;;;;;;1.93;1.67;;;26.00;77.50;;;;;;6092668;23;20423;-85
2021/08/08 11:43:42;;;;;;;3.37;1.40;;;26.30;78.00;;;;;;6071612;23;20423;-84
2021/08/08 11:59:09;;;;;;;1.30;1.00;;;26.50;70.20;;;;;;5938899;24;20436;-86
2021/08/08 12:04:52;;;;;;;;;;;;;;;;;;;;;
2021/08/08 12:07:42;;;;;;;1.80;1.17;;;26.80;68.90;;;;;;6171707;23;20424;-85
2021/08/08 12:13:20;;;;;;;1.27;1.00;;;26.60;67.90;;;;;;6168550;23;20427;-86
2021/08/08 12:16:38;;;;;;;2.27;1.20;;;25.30;70.60;;;;;;6171366;23;20419;-86
2021/08/08 12:19:31;;;;;;;1.17;1.07;;;24.60;72.10;;;;;;6171405;23;20445;-86
2021/08/08 12:22:11;;;;;;;1.83;0.80;;;24.20;74.20;;;;;;6167982;23;20739;-86
2021/08/08 12:24:45;;;;;;;1.43;0.70;;;23.90;73.20;;;;;;6172275;23;20454;-86
2021/08/08 12:27:40;;;;;;;1.13;0.60;;;23.70;72.80;;;;;;6172824;23;20444;-86
2021/08/08 12:33:38;;;;;;;1.20;1.00;;;23.90;73.70;;;;;;6122012;23;20545;-87
2021/08/08 12:37:00;;;;;;;;;;;;;;;;;;;;;
2021/08/08 12:40:19;;;;;;;1.80;1.30;;;24.00;73.20;;;;;;6164594;23;20422;-87
2021/08/08 12:43:39;;;;;;;1.40;1.00;;;24.20;74.00;;;;;;6164209;23;20433;-88
2021/08/08 12:49:47;;;;;;;2.50;0.80;;;24.90;72.10;;;;;;6051211;23;20495;-86
2021/08/08 12:53:05;;;;;;;;;;;;;;;;;;;;;
2021/08/08 12:55:47;;;;;;;1.60;1.50;;;25.90;70.80;;;;;;6128418;23;20435;-86
2021/08/08 12:58:17;;;;;;;1.53;1.37;;;25.90;70.90;;;;;;6171613;23;20443;-86
2021/08/08 13:21:21;;;;;;;;;;;;;;;;;;;;;
2021/08/08 13:30:41;;;;;;;1.63;1.33;;;27.40;67.30;;;;;;5753062;24;20425;-86
2021/08/08 13:37:09;;;;;;;;;;;;;;;;;;;;;
2021/08/08 13:43:11;;;;;;;1.87;1.60;;;24.40;72.00;;;;;;6092506;23;20428;-86
2021/08/08 13:46:21;;;;;;;2.90;1.33;;;22.80;74.30;;;;;;6093063;23;20445;-86
2021/08/08 13:49:36;;;;;;;1.40;1.30;;;21.30;82.10;;;;;;6091698;23;20405;-86
2021/08/08 13:56:12;;;;;;;;;;;;;;;;;;;;;
2021/08/08 13:59:09;;;;;;;;;;;;;;;;;;;;;
2021/08/08 14:02:03;;;;;;;1.20;1.13;;;23.10;89.00;;;;;;6008021;24;20417;-86
2021/08/08 14:04:43;;;;;;;1.60;1.50;;;24.00;83.90;;;;;;6096053;23;20438;-86
2021/08/08 14:10:57;;;;;;;2.23;1.77;;;24.20;83.80;;;;;;6096859;23;20421;-86
2021/08/08 14:17:23;;;;;;;;;;;;;;;;;;;;;
2021/08/08 14:26:54;;;;;;;2.57;2.10;;;23.20;85.40;;;;;;5944454;24;20456;-86
2021/08/08 14:29:34;;;;;;;3.07;1.67;;;23.10;83.30;;;;;;6026378;23;20495;-87
2021/08/08 14:32:17;;;;;;;;;;;;;;;;;;;;;
2021/08/08 14:38:46;;;;;;;1.00;1.00;;;23.10;81.60;;;;;;5995911;24;20431;-86
2021/08/08 14:54:54;;;;;;;2.50;1.40;;;26.90;68.40;;;;;;5815965;24;20466;-86
2021/08/08 15:01:09;;;;;;;3.80;1.10;;;27.10;68.70;;;;;;6024675;23;20415;-84
2021/08/08 15:07:33;;;;;;;;;;;;;;;;;;;;;
2021/08/08 15:13:50;;;;;;;1.53;1.23;;;26.30;63.00;;;;;;6090934;23;20451;-85
2021/08/08 15:16:54;;;;;;;0.67;0.67;;;26.50;65.00;;;;;;6032711;23;20413;-85
2021/08/08 15:19:57;;;;;;;0.70;0.70;;;26.10;63.20;;;;;;5930248;24;20429;-85
2021/08/08 15:22:58;;;;;;;2.93;1.00;;;25.70;65.40;;;;;;6000868;24;20432;-85
2021/08/08 15:26:06;;;;;;;1.83;1.30;;;25.40;66.30;;;;;;5863368;24;20508;-85
2021/08/08 15:35:23;;;;;;;1.40;1.00;;;24.50;68.60;;;;;;5848675;24;20454;-85
2021/08/08 15:44:39;;;;;;;1.73;1.00;;;23.50;72.90;;;;;;6014258;23;20527;-85
2021/08/08 15:47:16;;;;;;;3.20;1.27;;;23.50;72.80;;;;;;6081593;23;20477;-85
2021/08/08 15:50:44;;;;;;;;;;;;;;;;;;;;;
2021/08/08 15:53:32;;;;;;;;;;;;;;;;;;;;;
2021/08/08 16:06:06;;;;;;;2.83;1.67;;;22.80;74.50;;;;;;6015584;23;20429;-85
2021/08/08 16:09:19;;;;;;;1.80;1.67;;;23.20;74.00;;;;;;6028750;23;20953;-85
2021/08/08 16:19:23;;;;;;;;;;;;;;;;;;;;;
2021/08/08 18:13:43;;;;;;;;;;;;;;;;;;;;;
2021/08/08 18:33:36;;;;;;;;;;;;;;;;;;;;;
2021/08/08 18:36:05;;;;;;;1.27;1.17;;;21.90;75.00;;;;;;5976779;24;20924;-86
2021/08/08 18:38:32;;;;;;;2.53;1.63;;;21.60;76.00;;;;;;6042049;23;20493;-85
2021/08/08 18:40:58;;;;;;;2.00;1.90;;;21.40;76.20;;;;;;6052449;23;20409;-86
2021/08/08 18:43:26;;;;;;;2.13;1.93;;;21.10;77.20;;;;;;6052265;23;20410;-86
2021/08/08 18:45:52;;;;;;;2.87;1.90;;;20.80;78.00;;;;;;6052323;23;20438;-85
2021/08/08 18:48:21;;;;;;;1.93;1.80;;;20.60;79.10;;;;;;6052033;23;20454;-85
2021/08/08 18:50:48;;;;;;;3.33;2.50;;;20.40;80.20;;;;;;6051010;23;20422;-85
2021/08/08 18:53:16;;;;;;;1.97;1.73;;;20.20;80.60;;;;;;6051088;23;20417;-86
2021/08/08 18:55:43;;;;;;;2.50;2.00;;;20.00;80.80;;;;;;6051216;23;20782;-85
2021/08/08 18:58:10;;;;;;;2.27;1.50;;;19.70;81.20;;;;;;6050989;23;20901;-86
2021/08/08 19:00:37;;;;;;;2.03;1.90;;;19.40;82.30;;;;;;6050808;23;20463;-85
2021/08/08 19:03:04;;;;;;;1.87;1.77;;;19.30;83.20;;;;;;6050874;23;20413;-85
2021/08/08 19:05:42;;;;;;;;;;;;;;;;;;;;;
2021/08/08 19:16:16;;;;;;;;;;;;;;;;;;;;;
2021/08/08 19:18:43;;;;;;;1.83;1.60;;;18.50;87.80;;;;;;5900892;23;20460;-85
2021/08/08 19:21:14;;;;;;;2.80;1.93;;;18.50;88.30;;;;;;6057812;23;20508;-85
2021/08/08 19:23:41;;;;;;;1.90;1.80;;;18.40;88.90;;;;;;6055413;23;20401;-85
2021/08/08 19:26:09;;;;;;;1.87;1.77;;;18.40;90.00;;;;;;6055552;23;20499;-86
2021/08/08 19:28:36;;;;;;;1.70;1.60;;;18.30;89.50;;;;;;6049179;23;20452;-85
2021/08/08 19:31:03;;;;;;;3.03;1.80;;;18.20;90.10;;;;;;6050792;23;20745;-86
2021/08/08 19:33:31;;;;;;;4.40;2.87;;;18.20;90.40;;;;;;6049595;23;20516;-85
2021/08/08 19:35:58;;;;;;;4.07;2.70;;;18.10;90.70;;;;;;6047578;23;20963;-85
2021/08/08 19:38:24;;;;;;;2.43;2.23;;;18.10;91.20;;;;;;6047393;23;20414;-86
2021/08/08 19:40:51;;;;;;;2.47;1.90;;;18.10;91.20;;;;;;6047158;23;20511;-85
2021/08/08 19:43:18;;;;;;;1.83;1.73;;;18.00;92.00;;;;;;6047473;23;20443;-84
2021/08/08 19:45:45;;;;;;;2.40;2.20;;;18.00;92.50;;;;;;6047195;23;20436;-85
2021/08/08 19:48:11;;;;;;;2.80;2.60;;;17.90;92.40;;;;;;6052991;23;20454;-84
2021/08/08 19:50:40;;;;;;;2.20;2.00;;;17.90;93.20;;;;;;6046789;23;20954;-84
2021/08/08 19:53:06;;;;;;;2.20;2.00;;;17.80;93.30;;;;;;6046276;23;20547;-84
2021/08/08 19:55:34;;;;;;;2.33;2.13;;;17.70;93.60;;;;;;6046874;23;20439;-84
2021/08/08 19:58:01;;;;;;;2.20;2.10;;;17.70;93.90;;;;;;6046708;23;20419;-84
2021/08/08 20:00:28;;;;;;;2.33;2.13;;;17.60;94.00;;;;;;6047591;23;20416;-84
2021/08/08 20:02:54;;;;;;;2.50;2.30;;;17.50;94.20;;;;;;6049945;23;20430;-84
2021/08/08 20:05:22;;;;;;;2.50;2.30;;;17.50;94.50;;;;;;6046152;23;20436;-84
2021/08/08 20:07:50;;;;;;;2.97;2.77;;;17.40;94.80;;;;;;6047535;23;20459;-84
2021/08/08 20:10:18;;;;;;;2.70;2.50;;;17.40;95.40;;;;;;6048100;23;20447;-84
2021/08/08 20:12:45;;;;;;;2.17;2.07;;;17.30;95.50;;;;;;6045732;23;20415;-84
2021/08/08 20:15:16;;;;;;;3.40;2.70;;;17.30;95.80;;;;;;6045680;23;20435;-85
2021/08/08 20:17:44;;;;;;;2.83;2.63;;;17.20;95.80;;;;;;6046524;23;20395;-85
2021/08/08 20:20:12;;;;;;;3.53;3.23;;;17.10;96.30;;;;;;6046065;23;20981;-84
2021/08/08 20:22:39;;;;;;;1.90;1.73;;;17.10;96.60;;;;;;6045382;23;20426;-84
2021/08/08 20:25:14;;;;;;;2.67;2.47;;;17.10;96.80;;;;;;6049930;23;20442;-84
2021/08/08 20:27:41;;;;;;;2.83;2.13;;;17.00;97.00;;;;;;6046982;23;20517;-84
2021/08/08 20:30:11;;;;;;;4.17;3.00;;;16.90;97.10;;;;;;6048087;23;20422;-84
2021/08/08 20:32:38;;;;;;;4.47;2.20;;;16.90;97.60;;;;;;6045746;23;20421;-84
2021/08/08 20:35:05;;;;;;;2.27;2.07;;;16.80;97.50;;;;;;6046163;23;20438;-84
2021/08/08 20:37:33;;;;;;;2.63;2.43;;;16.70;97.80;;;;;;6045705;23;20417;-84
2021/08/08 20:40:00;;;;;;;4.93;3.23;;;16.70;97.90;;;;;;6045925;23;20442;-84
2021/08/08 20:42:28;;;;;;;2.90;2.47;;;16.70;98.20;;;;;;6045598;23;20407;-84
2021/08/08 20:44:55;;;;;;;2.50;2.10;;;16.60;98.30;;;;;;6045584;23;20788;-84
2021/08/08 20:47:21;;;;;;;2.87;2.03;;;16.60;98.50;;;;;;6045775;23;20408;-84
2021/08/08 20:49:48;;;;;;;3.70;2.30;;;16.50;99.00;;;;;;6047367;23;20457;-84
2021/08/08 20:52:15;;;;;;;2.00;1.90;;;16.50;98.90;;;;;;6045959;23;20491;-83
2021/08/08 20:54:42;;;;;;;2.50;2.30;;;16.40;99.10;;;;;;6046074;23;20437;-84
2021/08/08 20:57:08;;;;;;;2.87;2.67;;;16.30;99.70;;;;;;6046299;23;20422;-84
2021/08/08 20:59:37;;;;;;;5.40;2.43;;;16.30;99.90;;;;;;6046484;23;20416;-84
2021/08/08 21:02:04;;;;;;;3.07;2.77;;;16.20;99.90;;;;;;6046781;23;20470;-84
2021/08/08 21:04:31;;;;;;;4.50;2.90;;;16.20;99.90;;;;;;6046637;23;20784;-84
2021/08/08 21:06:58;;;;;;;2.93;2.70;;;16.20;99.90;;;;;;6046187;23;20409;-84
2021/08/08 21:09:25;;;;;;;5.27;2.40;;;16.20;99.90;;;;;;6046510;23;20454;-84
2021/08/08 21:11:51;;;;;;;3.30;2.40;;;16.00;99.90;;;;;;6047535;23;20425;-84
2021/08/08 21:14:18;;;;;;;2.80;2.60;;;15.80;99.90;;;;;;6048271;23;20434;-84
2021/08/08 21:16:46;;;;;;;6.53;2.53;;;15.60;99.90;;;;;;6046473;23;20418;-84
2021/08/08 21:19:13;;;;;;;2.40;2.00;;;15.50;99.90;;;;;;6046303;23;20474;-84
2021/08/08 21:21:40;;;;;;;2.80;2.60;;;15.30;99.90;;;;;;6044860;23;20425;-84
2021/08/08 21:24:07;;;;;;;2.20;2.10;;;15.30;99.90;;;;;;6045580;23;20437;-84
2021/08/08 21:26:34;;;;;;;3.00;2.70;;;15.30;99.90;;;;;;6046898;23;20888;-84
2021/08/08 21:29:01;;;;;;;2.13;2.03;;;15.30;99.90;;;;;;6046743;23;20460;-84
2021/08/08 21:31:28;;;;;;;2.27;2.03;;;15.40;99.90;;;;;;6046921;23;20418;-84
2021/08/08 21:33:56;;;;;;;3.27;3.00;;;15.50;99.90;;;;;;6052197;23;20434;-84
2021/08/08 21:36:24;;;;;;;3.50;2.53;;;15.60;99.90;;;;;;6049294;23;20487;-84
2021/08/08 21:38:50;;;;;;;3.60;2.27;;;15.60;99.90;;;;;;6048917;23;20450;-83
2021/08/08 21:41:17;;;;;;;4.93;2.17;;;15.60;99.90;;;;;;6050119;23;20922;-84
2021/08/08 21:43:44;;;;;;;2.37;2.07;;;15.60;99.90;;;;;;6048570;23;20419;-85
2021/08/08 21:46:11;;;;;;;7.50;2.40;;;15.60;99.90;;;;;;6049665;23;20478;-85
2021/08/08 21:48:38;;;;;;;3.10;2.30;;;15.60;99.90;;;;;;6049652;23;20449;-85
2021/08/08 21:51:06;;;;;;;3.00;2.43;;;15.70;99.90;;;;;;6049020;23;20419;-85
2021/08/08 21:53:33;;;;;;;2.50;2.40;;;15.70;99.90;;;;;;6050549;23;20402;-86
2021/08/08 21:55:59;;;;;;;3.20;3.00;;;15.70;99.90;;;;;;6050355;23;20425;-85
2021/08/08 21:58:26;;;;;;;3.40;3.10;;;15.60;99.90;;;;;;6049150;23;20418;-83
2021/08/08 22:00:53;;;;;;;2.23;2.03;;;15.60;99.90;;;;;;6049390;23;20424;-85
2021/08/08 22:03:20;;;;;;;2.33;2.13;;;15.60;99.90;;;;;;6049055;23;20425;-85
2021/08/08 22:05:49;;;;;;;3.00;2.80;;;15.60;99.90;;;;;;6050038;23;20514;-84
2021/08/08 22:08:17;;;;;;;2.00;1.90;;;15.60;99.90;;;;;;6049197;23;20457;-84
2021/08/08 22:10:44;;;;;;;3.50;2.10;;;15.50;99.90;;;;;;6048213;23;20903;-84
2021/08/08 22:13:10;;;;;;;4.87;2.53;;;15.40;99.90;;;;;;6048354;23;20510;-84
2021/08/08 22:15:37;;;;;;;1.83;1.73;;;15.40;99.90;;;;;;6047533;23;20439;-84
2021/08/08 22:18:04;;;;;;;5.00;2.40;;;15.40;99.90;;;;;;6047207;23;20429;-84
2021/08/08 22:20:32;;;;;;;1.90;1.80;;;15.40;99.90;;;;;;6047277;23;20427;-84
2021/08/08 22:22:58;;;;;;;6.37;2.60;;;15.50;99.90;;;;;;6047084;23;20415;-84
2021/08/08 22:25:27;;;;;;;1.90;1.80;;;15.40;99.90;;;;;;6046718;23;20453;-84
2021/08/08 22:27:55;;;;;;;4.57;2.40;;;15.40;99.90;;;;;;6047498;23;20432;-84
2021/08/08 22:30:22;;;;;;;2.80;2.60;;;15.40;99.90;;;;;;6047669;23;20454;-84
2021/08/08 22:32:50;;;;;;;2.17;2.00;;;15.40;99.90;;;;;;6046857;23;20409;-83
2021/08/08 22:35:17;;;;;;;2.20;2.10;;;15.40;99.90;;;;;;6047148;23;20466;-84
2021/08/08 22:37:44;;;;;;;2.47;2.20;;;15.30;99.90;;;;;;6047728;23;20433;-84
2021/08/08 22:40:11;;;;;;;2.27;2.07;;;15.30;99.90;;;;;;6046429;23;20410;-84
2021/08/08 22:42:40;;;;;;;2.43;2.23;;;15.40;99.90;;;;;;6046499;23;20489;-84
2021/08/08 22:45:07;;;;;;;3.77;2.47;;;15.20;99.90;;;;;;6046840;23;20442;-84
2021/08/08 22:47:34;;;;;;;2.20;2.00;;;15.30;99.90;;;;;;6047011;23;20410;-84
2021/08/08 22:50:01;;;;;;;2.60;2.40;;;15.30;99.90;;;;;;6047314;23;20458;-84
2021/08/08 22:52:28;;;;;;;2.10;1.90;;;15.20;99.90;;;;;;6047028;23;20415;-84
2021/08/08 22:54:54;;;;;;;1.83;1.53;;;15.20;99.90;;;;;;6047683;23;20436;-84
2021/08/08 22:57:21;;;;;;;2.47;2.27;;;15.30;99.90;;;;;;6046882;23;20404;-84
2021/08/08 22:59:49;;;;;;;2.27;2.17;;;15.30;99.90;;;;;;6046744;23;20422;-84
2021/08/08 23:02:16;;;;;;;2.03;1.93;;;15.20;99.90;;;;;;6046428;23;20439;-84
2021/08/08 23:04:43;;;;;;;2.47;2.27;;;15.20;99.90;;;;;;6047166;23;20449;-83
2021/08/08 23:07:10;;;;;;;2.40;2.20;;;15.20;99.90;;;;;;6047663;23;20445;-84
2021/08/08 23:09:37;;;;;;;2.60;2.40;;;15.20;99.90;;;;;;6056054;23;20484;-84
2021/08/08 23:12:05;;;;;;;3.23;2.40;;;15.20;99.90;;;;;;6055807;23;20415;-84
2021/08/08 23:14:34;;;;;;;2.37;2.27;;;15.20;99.90;;;;;;6047918;23;20445;-84
2021/08/08 23:17:02;;;;;;;2.30;1.83;;;15.10;99.90;;;;;;6046572;23;20762;-84
2021/08/08 23:19:30;;;;;;;2.00;1.90;;;15.10;99.90;;;;;;6046776;23;20413;-84
2021/08/08 23:21:57;;;;;;;3.00;2.60;;;15.10;99.90;;;;;;6045140;23;20427;-84
2021/08/08 23:24:23;;;;;;;2.50;2.27;;;15.00;99.90;;;;;;6045671;23;20443;-83
2021/08/08 23:26:50;;;;;;;3.00;2.20;;;14.90;99.90;;;;;;6046671;23;20406;-84
2021/08/08 23:29:17;;;;;;;2.60;2.33;;;14.90;99.90;;;;;;6046550;23;20445;-84
2021/08/08 23:31:44;;;;;;;4.60;2.17;;;14.90;99.90;;;;;;6045697;23;20411;-84
2021/08/08 23:34:12;;;;;;;3.67;2.27;;;14.90;99.90;;;;;;6045988;23;20427;-84
2021/08/08 23:36:39;;;;;;;2.33;2.13;;;14.90;99.90;;;;;;6046094;23;20425;-84
2021/08/08 23:39:08;;;;;;;2.10;1.90;;;14.80;99.90;;;;;;6046443;23;20847;-84
2021/08/08 23:41:35;;;;;;;2.30;2.07;;;14.70;99.90;;;;;;6046245;23;20442;-84
2021/08/08 23:44:02;;;;;;;2.37;2.00;;;14.80;99.90;;;;;;6046396;23;20964;-84
2021/08/08 23:46:29;;;;;;;1.47;1.37;;;14.80;99.90;;;;;;6047272;23;20446;-84
2021/08/08 23:48:55;;;;;;;2.17;1.87;;;14.80;99.90;;;;;;6045561;23;20454;-84
2021/08/08 23:51:24;;;;;;;2.40;2.20;;;14.80;99.90;;;;;;6045437;23;20406;-84
2021/08/08 23:53:50;;;;;;;2.17;1.80;;;14.80;99.90;;;;;;6045834;23;20505;-84
2021/08/08 23:56:17;;;;;;;2.17;2.07;;;14.80;99.90;;;;;;6054924;23;20418;-83
2021/08/08 23:58:44;;;;;;;2.20;2.10;;;14.70;99.90;;;;;;6054470;23;20477;-83
